sensor_id;sensor_type;location;lat;lon;timestamp;P1;durP1;ratioP1;P2;durP2;ratioP2
12774;SDS011;6451;42.630;23.382;2023-07-16T00:01:56;10.68;;;9.68;;
12774;SDS011;6451;42.630;23.382;2023-07-16T00:04:23;14.18;;;9.38;;
12774;SDS011;6451;42.630;23.382;2023-07-16T00:06:50;14.43;;;9.77;;
12774;SDS011;6451;42.630;23.382;2023-07-16T00:09:16;15.18;;;9.40;;
12774;SDS011;6451;42.630;23.382;2023-07-16T00:11:43;12.77;;;9.73;;
12774;SDS011;6451;42.630;23.382;2023-07-16T00:14:11;11.43;;;9.25;;
12774;SDS011;6451;42.630;23.382;2023-07-16T00:16:38;10.55;;;9.05;;
12774;SDS011;6451;42.630;23.382;2023-07-16T00:19:06;11.52;;;9.45;;
12774;SDS011;6451;42.630;23.382;2023-07-16T00:21:33;13.02;;;9.27;;
12774;SDS011;6451;42.630;23.382;2023-07-16T00:23:59;11.55;;;8.98;;
12774;SDS011;6451;42.630;23.382;2023-07-16T00:26:26;10.52;;;8.90;;
12774;SDS011;6451;42.630;23.382;2023-07-16T00:28:53;9.27;;;8.38;;
12774;SDS011;6451;42.630;23.382;2023-07-16T00:31:20;8.80;;;7.90;;
12774;SDS011;6451;42.630;23.382;2023-07-16T00:33:47;9.52;;;8.30;;
12774;SDS011;6451;42.630;23.382;2023-07-16T00:36:15;8.50;;;7.68;;
12774;SDS011;6451;42.630;23.382;2023-07-16T00:38:42;8.95;;;7.78;;
12774;SDS011;6451;42.630;23.382;2023-07-16T00:41:10;8.80;;;7.30;;
12774;SDS011;6451;42.630;23.382;2023-07-16T00:43:37;9.35;;;7.93;;
12774;SDS011;6451;42.630;23.382;2023-07-16T00:46:04;11.32;;;8.55;;
12774;SDS011;6451;42.630;23.382;2023-07-16T00:48:31;11.68;;;8.13;;
12774;SDS011;6451;42.630;23.382;2023-07-16T00:50:58;9.77;;;8.40;;
12774;SDS011;6451;42.630;23.382;2023-07-16T00:53:29;8.75;;;7.85;;
12774;SDS011;6451;42.630;23.382;2023-07-16T00:55:56;10.57;;;7.53;;
12774;SDS011;6451;42.630;23.382;2023-07-16T00:58:23;12.43;;;7.47;;
12774;SDS011;6451;42.630;23.382;2023-07-16T01:00:51;8.32;;;7.50;;
12774;SDS011;6451;42.630;23.382;2023-07-16T01:03:19;8.18;;;7.38;;
12774;SDS011;6451;42.630;23.382;2023-07-16T01:05:47;10.82;;;7.75;;
12774;SDS011;6451;42.630;23.382;2023-07-16T01:08:24;9.45;;;7.30;;
12774;SDS011;6451;42.630;23.382;2023-07-16T01:10:56;10.68;;;7.10;;
12774;SDS011;6451;42.630;23.382;2023-07-16T01:13:24;8.77;;;7.30;;
12774;SDS011;6451;42.630;23.382;2023-07-16T01:15:52;9.93;;;7.18;;
12774;SDS011;6451;42.630;23.382;2023-07-16T01:18:18;7.28;;;6.43;;
12774;SDS011;6451;42.630;23.382;2023-07-16T01:20:45;10.10;;;6.78;;
12774;SDS011;6451;42.630;23.382;2023-07-16T01:26:13;7.78;;;6.97;;
12774;SDS011;6451;42.630;23.382;2023-07-16T01:29:20;7.32;;;6.63;;
12774;SDS011;6451;42.630;23.382;2023-07-16T01:31:55;9.40;;;6.50;;
12774;SDS011;6451;42.630;23.382;2023-07-16T01:34:23;8.00;;;5.97;;
12774;SDS011;6451;42.630;23.382;2023-07-16T01:36:59;8.55;;;6.15;;
12774;SDS011;6451;42.630;23.382;2023-07-16T01:39:26;8.52;;;6.13;;
12774;SDS011;6451;42.630;23.382;2023-07-16T01:41:53;7.53;;;5.72;;
12774;SDS011;6451;42.630;23.382;2023-07-16T01:44:22;9.23;;;6.20;;
12774;SDS011;6451;42.630;23.382;2023-07-16T01:46:50;7.47;;;6.15;;
12774;SDS011;6451;42.630;23.382;2023-07-16T01:49:25;7.50;;;6.22;;
12774;SDS011;6451;42.630;23.382;2023-07-16T01:51:51;8.15;;;6.22;;
12774;SDS011;6451;42.630;23.382;2023-07-16T01:54:18;6.10;;;5.50;;
12774;SDS011;6451;42.630;23.382;2023-07-16T01:56:46;8.70;;;5.75;;
12774;SDS011;6451;42.630;23.382;2023-07-16T01:59:13;8.77;;;5.93;;
12774;SDS011;6451;42.630;23.382;2023-07-16T02:01:41;5.93;;;5.32;;
12774;SDS011;6451;42.630;23.382;2023-07-16T02:04:08;7.38;;;5.75;;
12774;SDS011;6451;42.630;23.382;2023-07-16T02:06:35;6.78;;;6.03;;
12774;SDS011;6451;42.630;23.382;2023-07-16T02:09:02;7.50;;;5.65;;
12774;SDS011;6451;42.630;23.382;2023-07-16T02:11:29;6.53;;;5.50;;
12774;SDS011;6451;42.630;23.382;2023-07-16T02:13:56;7.50;;;5.78;;
12774;SDS011;6451;42.630;23.382;2023-07-16T02:16:23;9.90;;;5.45;;
12774;SDS011;6451;42.630;23.382;2023-07-16T02:18:51;11.45;;;5.88;;
12774;SDS011;6451;42.630;23.382;2023-07-16T02:21:18;6.90;;;5.78;;
12774;SDS011;6451;42.630;23.382;2023-07-16T02:23:45;7.80;;;5.38;;
12774;SDS011;6451;42.630;23.382;2023-07-16T02:26:12;8.35;;;5.32;;
12774;SDS011;6451;42.630;23.382;2023-07-16T02:28:39;8.40;;;5.47;;
12774;SDS011;6451;42.630;23.382;2023-07-16T02:31:05;9.00;;;5.63;;
12774;SDS011;6451;42.630;23.382;2023-07-16T02:33:32;7.78;;;5.57;;
12774;SDS011;6451;42.630;23.382;2023-07-16T02:36:01;9.95;;;5.32;;
12774;SDS011;6451;42.630;23.382;2023-07-16T02:38:27;7.05;;;5.63;;
12774;SDS011;6451;42.630;23.382;2023-07-16T02:40:54;6.65;;;5.32;;
12774;SDS011;6451;42.630;23.382;2023-07-16T02:43:21;8.60;;;5.47;;
12774;SDS011;6451;42.630;23.382;2023-07-16T02:45:48;8.15;;;5.53;;
12774;SDS011;6451;42.630;23.382;2023-07-16T02:48:15;9.07;;;5.30;;
12774;SDS011;6451;42.630;23.382;2023-07-16T02:50:42;7.43;;;5.20;;
12774;SDS011;6451;42.630;23.382;2023-07-16T02:53:10;7.50;;;5.20;;
12774;SDS011;6451;42.630;23.382;2023-07-16T02:55:37;6.07;;;5.43;;
12774;SDS011;6451;42.630;23.382;2023-07-16T02:58:04;6.75;;;5.70;;
12774;SDS011;6451;42.630;23.382;2023-07-16T03:00:31;7.13;;;5.10;;
12774;SDS011;6451;42.630;23.382;2023-07-16T03:02:58;10.23;;;5.75;;
12774;SDS011;6451;42.630;23.382;2023-07-16T03:05:25;6.65;;;5.78;;
12774;SDS011;6451;42.630;23.382;2023-07-16T03:07:52;5.90;;;5.30;;
12774;SDS011;6451;42.630;23.382;2023-07-16T03:10:22;7.97;;;5.80;;
12774;SDS011;6451;42.630;23.382;2023-07-16T03:12:51;8.65;;;5.45;;
12774;SDS011;6451;42.630;23.382;2023-07-16T03:15:18;7.57;;;5.47;;
12774;SDS011;6451;42.630;23.382;2023-07-16T03:17:45;8.63;;;5.20;;
12774;SDS011;6451;42.630;23.382;2023-07-16T03:20:12;6.97;;;5.10;;
12774;SDS011;6451;42.630;23.382;2023-07-16T03:22:39;7.55;;;5.15;;
12774;SDS011;6451;42.630;23.382;2023-07-16T03:25:07;6.85;;;5.10;;
12774;SDS011;6451;42.630;23.382;2023-07-16T03:27:36;5.65;;;4.90;;
12774;SDS011;6451;42.630;23.382;2023-07-16T03:30:03;6.72;;;4.63;;
12774;SDS011;6451;42.630;23.382;2023-07-16T03:32:31;7.65;;;5.00;;
12774;SDS011;6451;42.630;23.382;2023-07-16T03:34:58;5.88;;;4.65;;
12774;SDS011;6451;42.630;23.382;2023-07-16T03:37:25;11.35;;;4.70;;
12774;SDS011;6451;42.630;23.382;2023-07-16T03:39:52;6.18;;;4.55;;
12774;SDS011;6451;42.630;23.382;2023-07-16T03:42:19;7.53;;;5.00;;
12774;SDS011;6451;42.630;23.382;2023-07-16T03:44:48;5.13;;;4.57;;
12774;SDS011;6451;42.630;23.382;2023-07-16T03:47:15;8.63;;;4.85;;
12774;SDS011;6451;42.630;23.382;2023-07-16T03:49:43;9.30;;;4.88;;
12774;SDS011;6451;42.630;23.382;2023-07-16T03:52:10;9.13;;;4.88;;
12774;SDS011;6451;42.630;23.382;2023-07-16T03:54:37;8.27;;;4.70;;
12774;SDS011;6451;42.630;23.382;2023-07-16T03:57:04;5.82;;;4.82;;
12774;SDS011;6451;42.630;23.382;2023-07-16T03:59:31;6.32;;;5.00;;
12774;SDS011;6451;42.630;23.382;2023-07-16T04:02:00;5.70;;;4.68;;
12774;SDS011;6451;42.630;23.382;2023-07-16T04:04:26;6.32;;;4.47;;
12774;SDS011;6451;42.630;23.382;2023-07-16T04:06:53;5.10;;;4.60;;
12774;SDS011;6451;42.630;23.382;2023-07-16T04:09:21;7.65;;;4.80;;
12774;SDS011;6451;42.630;23.382;2023-07-16T04:11:48;5.63;;;4.45;;
12774;SDS011;6451;42.630;23.382;2023-07-16T04:14:15;7.25;;;4.40;;
12774;SDS011;6451;42.630;23.382;2023-07-16T04:16:45;8.05;;;4.85;;
12774;SDS011;6451;42.630;23.382;2023-07-16T04:19:14;6.88;;;4.57;;
12774;SDS011;6451;42.630;23.382;2023-07-16T04:21:40;6.22;;;4.93;;
12774;SDS011;6451;42.630;23.382;2023-07-16T04:24:08;5.18;;;4.40;;
12774;SDS011;6451;42.630;23.382;2023-07-16T04:26:35;7.20;;;4.45;;
12774;SDS011;6451;42.630;23.382;2023-07-16T04:29:02;5.65;;;4.50;;
12774;SDS011;6451;42.630;23.382;2023-07-16T04:31:29;9.07;;;4.57;;
12774;SDS011;6451;42.630;23.382;2023-07-16T04:33:56;4.90;;;4.40;;
12774;SDS011;6451;42.630;23.382;2023-07-16T04:36:24;6.80;;;4.00;;
12774;SDS011;6451;42.630;23.382;2023-07-16T04:38:51;7.93;;;4.20;;
12774;SDS011;6451;42.630;23.382;2023-07-16T04:41:19;5.60;;;4.70;;
12774;SDS011;6451;42.630;23.382;2023-07-16T04:43:46;5.43;;;4.53;;
12774;SDS011;6451;42.630;23.382;2023-07-16T04:46:14;8.18;;;4.53;;
12774;SDS011;6451;42.630;23.382;2023-07-16T04:48:41;5.85;;;4.43;;
12774;SDS011;6451;42.630;23.382;2023-07-16T04:51:09;5.00;;;4.25;;
12774;SDS011;6451;42.630;23.382;2023-07-16T04:53:37;5.22;;;4.10;;
12774;SDS011;6451;42.630;23.382;2023-07-16T04:56:04;4.57;;;3.92;;
12774;SDS011;6451;42.630;23.382;2023-07-16T04:58:37;5.97;;;4.90;;
12774;SDS011;6451;42.630;23.382;2023-07-16T05:01:04;6.60;;;4.28;;
12774;SDS011;6451;42.630;23.382;2023-07-16T05:03:32;4.50;;;4.10;;
12774;SDS011;6451;42.630;23.382;2023-07-16T05:05:59;4.85;;;4.25;;
12774;SDS011;6451;42.630;23.382;2023-07-16T05:08:26;6.00;;;4.55;;
12774;SDS011;6451;42.630;23.382;2023-07-16T05:10:55;5.32;;;4.40;;
12774;SDS011;6451;42.630;23.382;2023-07-16T05:13:21;8.82;;;4.47;;
12774;SDS011;6451;42.630;23.382;2023-07-16T05:15:48;7.20;;;5.07;;
12774;SDS011;6451;42.630;23.382;2023-07-16T05:18:15;5.20;;;4.47;;
12774;SDS011;6451;42.630;23.382;2023-07-16T05:20:43;5.18;;;4.32;;
12774;SDS011;6451;42.630;23.382;2023-07-16T05:23:13;5.55;;;4.50;;
12774;SDS011;6451;42.630;23.382;2023-07-16T05:25:45;5.63;;;4.38;;
12774;SDS011;6451;42.630;23.382;2023-07-16T05:28:13;5.72;;;4.60;;
12774;SDS011;6451;42.630;23.382;2023-07-16T05:30:41;4.88;;;4.47;;
12774;SDS011;6451;42.630;23.382;2023-07-16T05:33:08;6.25;;;4.72;;
12774;SDS011;6451;42.630;23.382;2023-07-16T05:35:36;5.43;;;4.68;;
12774;SDS011;6451;42.630;23.382;2023-07-16T05:38:03;7.00;;;4.80;;
12774;SDS011;6451;42.630;23.382;2023-07-16T05:40:30;9.50;;;4.90;;
12774;SDS011;6451;42.630;23.382;2023-07-16T05:42:56;12.13;;;4.95;;
12774;SDS011;6451;42.630;23.382;2023-07-16T05:45:26;10.90;;;5.45;;
12774;SDS011;6451;42.630;23.382;2023-07-16T05:47:53;9.13;;;4.95;;
12774;SDS011;6451;42.630;23.382;2023-07-16T05:50:20;8.05;;;5.07;;
12774;SDS011;6451;42.630;23.382;2023-07-16T05:52:47;8.82;;;5.22;;
12774;SDS011;6451;42.630;23.382;2023-07-16T05:55:14;15.27;;;5.68;;
12774;SDS011;6451;42.630;23.382;2023-07-16T05:57:41;5.25;;;4.75;;
12774;SDS011;6451;42.630;23.382;2023-07-16T06:00:08;8.43;;;5.50;;
12774;SDS011;6451;42.630;23.382;2023-07-16T06:02:37;7.78;;;5.25;;
12774;SDS011;6451;42.630;23.382;2023-07-16T06:05:04;8.40;;;4.80;;
12774;SDS011;6451;42.630;23.382;2023-07-16T06:07:32;10.45;;;5.47;;
12774;SDS011;6451;42.630;23.382;2023-07-16T06:09:59;5.28;;;4.70;;
12774;SDS011;6451;42.630;23.382;2023-07-16T06:12:27;7.15;;;4.57;;
12774;SDS011;6451;42.630;23.382;2023-07-16T06:14:53;6.10;;;4.82;;
12774;SDS011;6451;42.630;23.382;2023-07-16T06:17:20;6.82;;;4.75;;
12774;SDS011;6451;42.630;23.382;2023-07-16T06:19:49;7.93;;;5.00;;
12774;SDS011;6451;42.630;23.382;2023-07-16T06:22:17;5.15;;;4.65;;
12774;SDS011;6451;42.630;23.382;2023-07-16T06:24:48;6.07;;;5.15;;
12774;SDS011;6451;42.630;23.382;2023-07-16T06:27:15;6.32;;;5.15;;
12774;SDS011;6451;42.630;23.382;2023-07-16T06:29:44;8.02;;;5.10;;
12774;SDS011;6451;42.630;23.382;2023-07-16T06:32:11;6.03;;;4.50;;
12774;SDS011;6451;42.630;23.382;2023-07-16T06:34:38;7.38;;;4.93;;
12774;SDS011;6451;42.630;23.382;2023-07-16T06:37:06;5.72;;;4.97;;
12774;SDS011;6451;42.630;23.382;2023-07-16T06:39:34;7.55;;;5.03;;
12774;SDS011;6451;42.630;23.382;2023-07-16T06:42:01;10.43;;;5.97;;
12774;SDS011;6451;42.630;23.382;2023-07-16T06:44:29;9.27;;;5.20;;
12774;SDS011;6451;42.630;23.382;2023-07-16T06:46:56;5.70;;;5.20;;
12774;SDS011;6451;42.630;23.382;2023-07-16T06:49:23;6.55;;;4.70;;
12774;SDS011;6451;42.630;23.382;2023-07-16T06:51:50;8.48;;;4.82;;
12774;SDS011;6451;42.630;23.382;2023-07-16T06:54:18;6.25;;;4.80;;
12774;SDS011;6451;42.630;23.382;2023-07-16T06:56:45;8.38;;;5.05;;
12774;SDS011;6451;42.630;23.382;2023-07-16T06:59:12;8.02;;;4.90;;
12774;SDS011;6451;42.630;23.382;2023-07-16T07:01:39;7.82;;;4.90;;
12774;SDS011;6451;42.630;23.382;2023-07-16T07:04:06;6.63;;;5.10;;
12774;SDS011;6451;42.630;23.382;2023-07-16T07:06:33;9.30;;;5.32;;
12774;SDS011;6451;42.630;23.382;2023-07-16T07:09:00;7.05;;;5.20;;
12774;SDS011;6451;42.630;23.382;2023-07-16T07:11:28;7.80;;;5.13;;
12774;SDS011;6451;42.630;23.382;2023-07-16T07:13:55;6.40;;;5.25;;
12774;SDS011;6451;42.630;23.382;2023-07-16T07:16:22;7.18;;;5.32;;
12774;SDS011;6451;42.630;23.382;2023-07-16T07:18:49;7.13;;;5.35;;
12774;SDS011;6451;42.630;23.382;2023-07-16T07:21:16;6.72;;;6.13;;
12774;SDS011;6451;42.630;23.382;2023-07-16T07:23:43;8.27;;;5.28;;
12774;SDS011;6451;42.630;23.382;2023-07-16T07:26:10;5.35;;;4.95;;
12774;SDS011;6451;42.630;23.382;2023-07-16T07:28:38;5.88;;;5.20;;
12774;SDS011;6451;42.630;23.382;2023-07-16T07:31:05;8.27;;;4.95;;
12774;SDS011;6451;42.630;23.382;2023-07-16T07:33:32;6.43;;;5.28;;
12774;SDS011;6451;42.630;23.382;2023-07-16T07:35:59;7.30;;;5.35;;
12774;SDS011;6451;42.630;23.382;2023-07-16T07:38:27;5.05;;;4.40;;
12774;SDS011;6451;42.630;23.382;2023-07-16T07:40:54;9.57;;;4.95;;
12774;SDS011;6451;42.630;23.382;2023-07-16T07:43:21;7.40;;;5.18;;
12774;SDS011;6451;42.630;23.382;2023-07-16T07:48:19;6.95;;;5.75;;
12774;SDS011;6451;42.630;23.382;2023-07-16T07:50:47;5.15;;;4.50;;
12774;SDS011;6451;42.630;23.382;2023-07-16T07:53:14;7.45;;;5.05;;
12774;SDS011;6451;42.630;23.382;2023-07-16T07:55:43;9.77;;;5.13;;
12774;SDS011;6451;42.630;23.382;2023-07-16T07:58:10;5.85;;;5.05;;
12774;SDS011;6451;42.630;23.382;2023-07-16T08:00:37;8.82;;;5.60;;
12774;SDS011;6451;42.630;23.382;2023-07-16T08:03:05;5.97;;;5.20;;
12774;SDS011;6451;42.630;23.382;2023-07-16T08:05:32;8.63;;;5.53;;
12774;SDS011;6451;42.630;23.382;2023-07-16T08:07:59;7.65;;;5.57;;
12774;SDS011;6451;42.630;23.382;2023-07-16T08:10:26;8.82;;;5.78;;
12774;SDS011;6451;42.630;23.382;2023-07-16T08:12:53;6.32;;;5.60;;
12774;SDS011;6451;42.630;23.382;2023-07-16T08:15:20;8.77;;;5.75;;
12774;SDS011;6451;42.630;23.382;2023-07-16T08:17:47;8.93;;;5.68;;
12774;SDS011;6451;42.630;23.382;2023-07-16T08:20:15;7.35;;;5.57;;
12774;SDS011;6451;42.630;23.382;2023-07-16T08:22:42;7.95;;;5.63;;
12774;SDS011;6451;42.630;23.382;2023-07-16T08:25:09;6.80;;;5.75;;
12774;SDS011;6451;42.630;23.382;2023-07-16T08:27:36;8.25;;;5.45;;
12774;SDS011;6451;42.630;23.382;2023-07-16T08:30:04;8.40;;;6.18;;
12774;SDS011;6451;42.630;23.382;2023-07-16T08:32:31;7.15;;;6.28;;
12774;SDS011;6451;42.630;23.382;2023-07-16T08:34:58;9.38;;;6.00;;
12774;SDS011;6451;42.630;23.382;2023-07-16T08:37:27;8.32;;;5.90;;
12774;SDS011;6451;42.630;23.382;2023-07-16T08:39:53;6.10;;;5.50;;
12774;SDS011;6451;42.630;23.382;2023-07-16T08:42:20;7.78;;;5.75;;
12774;SDS011;6451;42.630;23.382;2023-07-16T08:44:48;8.05;;;6.57;;
12774;SDS011;6451;42.630;23.382;2023-07-16T08:47:15;8.38;;;6.45;;
12774;SDS011;6451;42.630;23.382;2023-07-16T08:49:44;9.73;;;6.97;;
12774;SDS011;6451;42.630;23.382;2023-07-16T08:52:22;6.65;;;5.55;;
12774;SDS011;6451;42.630;23.382;2023-07-16T08:54:50;5.57;;;5.00;;
12774;SDS011;6451;42.630;23.382;2023-07-16T08:57:17;10.98;;;5.75;;
12774;SDS011;6451;42.630;23.382;2023-07-16T08:59:47;7.10;;;5.78;;
12774;SDS011;6451;42.630;23.382;2023-07-16T09:02:15;9.60;;;6.28;;
12774;SDS011;6451;42.630;23.382;2023-07-16T09:04:43;10.25;;;6.25;;
12774;SDS011;6451;42.630;23.382;2023-07-16T09:07:10;7.60;;;6.13;;
12774;SDS011;6451;42.630;23.382;2023-07-16T09:09:37;6.82;;;5.80;;
12774;SDS011;6451;42.630;23.382;2023-07-16T09:12:06;6.43;;;5.82;;
12774;SDS011;6451;42.630;23.382;2023-07-16T09:14:33;7.85;;;6.25;;
12774;SDS011;6451;42.630;23.382;2023-07-16T09:17:00;7.18;;;6.50;;
12774;SDS011;6451;42.630;23.382;2023-07-16T09:19:31;6.95;;;6.20;;
12774;SDS011;6451;42.630;23.382;2023-07-16T09:21:58;7.32;;;5.63;;
12774;SDS011;6451;42.630;23.382;2023-07-16T09:24:26;9.75;;;6.00;;
12774;SDS011;6451;42.630;23.382;2023-07-16T09:26:53;6.82;;;6.13;;
12774;SDS011;6451;42.630;23.382;2023-07-16T09:29:24;6.72;;;6.07;;
12774;SDS011;6451;42.630;23.382;2023-07-16T09:31:53;10.20;;;6.30;;
12774;SDS011;6451;42.630;23.382;2023-07-16T09:34:20;14.25;;;6.63;;
12774;SDS011;6451;42.630;23.382;2023-07-16T09:36:47;9.65;;;5.95;;
12774;SDS011;6451;42.630;23.382;2023-07-16T09:39:16;10.38;;;6.43;;
12774;SDS011;6451;42.630;23.382;2023-07-16T09:41:44;9.40;;;6.15;;
12774;SDS011;6451;42.630;23.382;2023-07-16T09:44:13;9.38;;;5.90;;
12774;SDS011;6451;42.630;23.382;2023-07-16T09:46:42;8.93;;;7.93;;
12774;SDS011;6451;42.630;23.382;2023-07-16T09:49:10;7.07;;;6.25;;
12774;SDS011;6451;42.630;23.382;2023-07-16T09:51:38;8.38;;;5.97;;
12774;SDS011;6451;42.630;23.382;2023-07-16T09:54:05;8.27;;;6.00;;
12774;SDS011;6451;42.630;23.382;2023-07-16T09:56:34;8.38;;;5.93;;
12774;SDS011;6451;42.630;23.382;2023-07-16T09:59:05;8.07;;;6.78;;
12774;SDS011;6451;42.630;23.382;2023-07-16T10:01:36;8.55;;;7.03;;
12774;SDS011;6451;42.630;23.382;2023-07-16T10:04:13;10.15;;;7.28;;
12774;SDS011;6451;42.630;23.382;2023-07-16T10:06:51;7.95;;;6.72;;
12774;SDS011;6451;42.630;23.382;2023-07-16T10:09:31;8.57;;;6.82;;
12774;SDS011;6451;42.630;23.382;2023-07-16T10:12:07;8.93;;;7.18;;
12774;SDS011;6451;42.630;23.382;2023-07-16T10:14:41;8.32;;;7.15;;
12774;SDS011;6451;42.630;23.382;2023-07-16T10:17:16;9.70;;;7.18;;
12774;SDS011;6451;42.630;23.382;2023-07-16T10:19:55;9.75;;;7.00;;
12774;SDS011;6451;42.630;23.382;2023-07-16T10:22:36;10.95;;;7.38;;
12774;SDS011;6451;42.630;23.382;2023-07-16T10:25:07;10.15;;;6.97;;
12774;SDS011;6451;42.630;23.382;2023-07-16T10:27:35;9.45;;;7.03;;
12774;SDS011;6451;42.630;23.382;2023-07-16T10:30:03;7.50;;;6.82;;
12774;SDS011;6451;42.630;23.382;2023-07-16T10:32:33;8.68;;;7.88;;
12774;SDS011;6451;42.630;23.382;2023-07-16T10:35:02;11.48;;;7.22;;
12774;SDS011;6451;42.630;23.382;2023-07-16T10:37:31;11.20;;;10.15;;
12774;SDS011;6451;42.630;23.382;2023-07-16T10:39:59;8.30;;;7.40;;
12774;SDS011;6451;42.630;23.382;2023-07-16T10:42:28;11.95;;;7.13;;
12774;SDS011;6451;42.630;23.382;2023-07-16T10:44:57;8.48;;;6.93;;
12774;SDS011;6451;42.630;23.382;2023-07-16T10:47:28;9.50;;;7.80;;
12774;SDS011;6451;42.630;23.382;2023-07-16T10:49:56;9.10;;;8.18;;
12774;SDS011;6451;42.630;23.382;2023-07-16T10:52:25;9.60;;;7.30;;
12774;SDS011;6451;42.630;23.382;2023-07-16T10:54:53;10.13;;;7.35;;
12774;SDS011;6451;42.630;23.382;2023-07-16T10:57:20;10.40;;;7.78;;
12774;SDS011;6451;42.630;23.382;2023-07-16T10:59:48;9.55;;;8.25;;
12774;SDS011;6451;42.630;23.382;2023-07-16T11:02:15;10.80;;;8.13;;
12774;SDS011;6451;42.630;23.382;2023-07-16T11:04:43;10.95;;;8.05;;
12774;SDS011;6451;42.630;23.382;2023-07-16T11:07:11;11.15;;;7.55;;
12774;SDS011;6451;42.630;23.382;2023-07-16T11:09:43;8.90;;;7.97;;
12774;SDS011;6451;42.630;23.382;2023-07-16T11:12:13;9.65;;;7.85;;
12774;SDS011;6451;42.630;23.382;2023-07-16T11:14:42;10.73;;;7.47;;
12774;SDS011;6451;42.630;23.382;2023-07-16T11:17:10;11.73;;;7.82;;
12774;SDS011;6451;42.630;23.382;2023-07-16T11:19:38;10.35;;;7.95;;
12774;SDS011;6451;42.630;23.382;2023-07-16T11:22:06;10.02;;;7.55;;
12774;SDS011;6451;42.630;23.382;2023-07-16T11:24:40;9.80;;;7.95;;
12774;SDS011;6451;42.630;23.382;2023-07-16T11:27:19;10.77;;;7.88;;
12774;SDS011;6451;42.630;23.382;2023-07-16T11:29:48;8.73;;;7.70;;
12774;SDS011;6451;42.630;23.382;2023-07-16T11:32:26;9.00;;;8.00;;
12774;SDS011;6451;42.630;23.382;2023-07-16T11:34:54;11.98;;;8.38;;
12774;SDS011;6451;42.630;23.382;2023-07-16T11:37:21;12.20;;;7.90;;
12774;SDS011;6451;42.630;23.382;2023-07-16T11:39:50;9.35;;;8.38;;
12774;SDS011;6451;42.630;23.382;2023-07-16T11:42:24;9.43;;;8.25;;
12774;SDS011;6451;42.630;23.382;2023-07-16T11:44:55;12.35;;;7.70;;
12774;SDS011;6451;42.630;23.382;2023-07-16T11:47:22;8.60;;;7.72;;
12774;SDS011;6451;42.630;23.382;2023-07-16T11:49:49;9.20;;;8.35;;
12774;SDS011;6451;42.630;23.382;2023-07-16T11:52:18;11.18;;;7.95;;
12774;SDS011;6451;42.630;23.382;2023-07-16T11:54:46;9.07;;;7.70;;
12774;SDS011;6451;42.630;23.382;2023-07-16T11:57:12;14.30;;;8.20;;
12774;SDS011;6451;42.630;23.382;2023-07-16T11:59:41;10.75;;;8.07;;
12774;SDS011;6451;42.630;23.382;2023-07-16T12:02:08;9.00;;;8.10;;
12774;SDS011;6451;42.630;23.382;2023-07-16T12:04:35;9.27;;;7.90;;
12774;SDS011;6451;42.630;23.382;2023-07-16T12:07:02;9.65;;;7.97;;
12774;SDS011;6451;42.630;23.382;2023-07-16T12:09:29;12.40;;;8.70;;
12774;SDS011;6451;42.630;23.382;2023-07-16T12:11:56;12.85;;;8.05;;
12774;SDS011;6451;42.630;23.382;2023-07-16T12:14:23;8.93;;;8.00;;
12774;SDS011;6451;42.630;23.382;2023-07-16T12:16:51;9.75;;;8.35;;
12774;SDS011;6451;42.630;23.382;2023-07-16T12:19:18;12.95;;;8.45;;
12774;SDS011;6451;42.630;23.382;2023-07-16T12:21:45;10.48;;;8.30;;
12774;SDS011;6451;42.630;23.382;2023-07-16T12:24:12;8.73;;;7.75;;
12774;SDS011;6451;42.630;23.382;2023-07-16T12:26:39;10.40;;;8.20;;
12774;SDS011;6451;42.630;23.382;2023-07-16T12:29:06;9.25;;;8.07;;
12774;SDS011;6451;42.630;23.382;2023-07-16T12:31:33;8.95;;;7.65;;
12774;SDS011;6451;42.630;23.382;2023-07-16T12:34:02;8.65;;;7.85;;
12774;SDS011;6451;42.630;23.382;2023-07-16T12:36:29;11.25;;;7.95;;
12774;SDS011;6451;42.630;23.382;2023-07-16T12:38:56;13.10;;;7.65;;
12774;SDS011;6451;42.630;23.382;2023-07-16T12:41:24;9.00;;;8.15;;
12774;SDS011;6451;42.630;23.382;2023-07-16T12:43:51;11.95;;;8.48;;
12774;SDS011;6451;42.630;23.382;2023-07-16T12:46:18;8.50;;;6.70;;
12774;SDS011;6451;42.630;23.382;2023-07-16T12:48:45;10.45;;;7.55;;
12774;SDS011;6451;42.630;23.382;2023-07-16T12:51:13;13.50;;;7.60;;
12774;SDS011;6451;42.630;23.382;2023-07-16T12:53:40;9.10;;;7.82;;
12774;SDS011;6451;42.630;23.382;2023-07-16T12:56:08;8.43;;;7.57;;
12774;SDS011;6451;42.630;23.382;2023-07-16T12:58:35;14.52;;;7.85;;
12774;SDS011;6451;42.630;23.382;2023-07-16T13:01:02;8.93;;;7.63;;
12774;SDS011;6451;42.630;23.382;2023-07-16T13:03:30;8.30;;;7.43;;
12774;SDS011;6451;42.630;23.382;2023-07-16T13:05:57;15.25;;;7.82;;
12774;SDS011;6451;42.630;23.382;2023-07-16T13:08:25;10.25;;;7.97;;
12774;SDS011;6451;42.630;23.382;2023-07-16T13:10:52;8.70;;;7.40;;
12774;SDS011;6451;42.630;23.382;2023-07-16T13:13:19;13.45;;;7.75;;
12774;SDS011;6451;42.630;23.382;2023-07-16T13:15:46;10.23;;;7.90;;
12774;SDS011;6451;42.630;23.382;2023-07-16T13:18:13;9.73;;;7.57;;
12774;SDS011;6451;42.630;23.382;2023-07-16T13:20:40;9.93;;;7.82;;
12774;SDS011;6451;42.630;23.382;2023-07-16T13:23:08;8.82;;;7.88;;
12774;SDS011;6451;42.630;23.382;2023-07-16T13:25:36;8.27;;;7.40;;
12774;SDS011;6451;42.630;23.382;2023-07-16T13:28:04;8.18;;;7.35;;
12774;SDS011;6451;42.630;23.382;2023-07-16T13:30:31;9.35;;;7.78;;
12774;SDS011;6451;42.630;23.382;2023-07-16T13:32:58;8.90;;;8.00;;
12774;SDS011;6451;42.630;23.382;2023-07-16T13:35:26;8.90;;;7.63;;
12774;SDS011;6451;42.630;23.382;2023-07-16T13:37:54;10.32;;;7.82;;
12774;SDS011;6451;42.630;23.382;2023-07-16T13:40:21;14.30;;;8.18;;
12774;SDS011;6451;42.630;23.382;2023-07-16T13:42:50;8.30;;;7.45;;
12774;SDS011;6451;42.630;23.382;2023-07-16T13:45:18;9.13;;;8.23;;
12774;SDS011;6451;42.630;23.382;2023-07-16T13:47:45;15.43;;;8.30;;
12774;SDS011;6451;42.630;23.382;2023-07-16T13:50:12;9.02;;;7.40;;
12774;SDS011;6451;42.630;23.382;2023-07-16T13:52:39;8.07;;;7.10;;
12774;SDS011;6451;42.630;23.382;2023-07-16T13:55:06;7.82;;;6.60;;
12774;SDS011;6451;42.630;23.382;2023-07-16T13:57:33;11.27;;;7.32;;
12774;SDS011;6451;42.630;23.382;2023-07-16T14:00:02;9.18;;;8.25;;
12774;SDS011;6451;42.630;23.382;2023-07-16T14:02:30;9.73;;;7.25;;
12774;SDS011;6451;42.630;23.382;2023-07-16T14:04:57;10.52;;;6.95;;
12774;SDS011;6451;42.630;23.382;2023-07-16T14:07:23;7.88;;;6.70;;
12774;SDS011;6451;42.630;23.382;2023-07-16T14:09:50;6.90;;;6.20;;
12774;SDS011;6451;42.630;23.382;2023-07-16T14:12:17;8.10;;;6.50;;
12774;SDS011;6451;42.630;23.382;2023-07-16T14:14:45;8.60;;;6.28;;
12774;SDS011;6451;42.630;23.382;2023-07-16T14:17:14;9.32;;;6.68;;
12774;SDS011;6451;42.630;23.382;2023-07-16T14:19:41;8.00;;;6.93;;
12774;SDS011;6451;42.630;23.382;2023-07-16T14:22:08;8.18;;;6.15;;
12774;SDS011;6451;42.630;23.382;2023-07-16T14:24:36;9.13;;;6.35;;
12774;SDS011;6451;42.630;23.382;2023-07-16T14:27:05;7.22;;;6.57;;
12774;SDS011;6451;42.630;23.382;2023-07-16T14:29:33;9.15;;;6.28;;
12774;SDS011;6451;42.630;23.382;2023-07-16T14:32:01;11.60;;;6.50;;
12774;SDS011;6451;42.630;23.382;2023-07-16T14:34:29;8.20;;;6.45;;
12774;SDS011;6451;42.630;23.382;2023-07-16T14:36:56;7.45;;;6.50;;
12774;SDS011;6451;42.630;23.382;2023-07-16T14:39:23;8.00;;;6.60;;
12774;SDS011;6451;42.630;23.382;2023-07-16T14:41:49;7.55;;;6.65;;
12774;SDS011;6451;42.630;23.382;2023-07-16T14:44:16;7.50;;;6.38;;
12774;SDS011;6451;42.630;23.382;2023-07-16T14:46:43;7.05;;;6.35;;
12774;SDS011;6451;42.630;23.382;2023-07-16T14:49:10;8.55;;;6.47;;
12774;SDS011;6451;42.630;23.382;2023-07-16T14:51:39;7.55;;;6.18;;
12774;SDS011;6451;42.630;23.382;2023-07-16T14:54:07;7.05;;;6.45;;
12774;SDS011;6451;42.630;23.382;2023-07-16T14:56:35;8.35;;;6.22;;